createdAt,value
2018-02-02T00:00:57.506Z,65.06
2018-02-02T00:03:29.728Z,65.03
2018-02-02T00:06:00.161Z,65.05
2018-02-02T00:08:30.834Z,65.10
2018-02-02T00:11:01.424Z,65.02
2018-02-02T00:13:31.694Z,64.79
2018-02-02T00:16:02.682Z,65.23
2018-02-02T00:18:33.219Z,64.74
2018-02-02T00:21:03.721Z,65.01
2018-02-02T00:23:34.517Z,64.72
2018-02-02T00:26:05.504Z,64.62
2018-02-02T00:28:36.478Z,64.19
2018-02-02T00:31:07.184Z,63.69
2018-02-02T00:33:37.792Z,63.74
2018-02-02T00:36:08.360Z,63.81
2018-02-02T00:38:39.569Z,63.88
2018-02-02T00:41:09.949Z,64.18
2018-02-02T00:43:40.310Z,64.32
2018-02-02T00:46:16.592Z,63.87
2018-02-02T00:48:47.609Z,63.52
2018-02-02T00:51:22.271Z,64.17
2018-02-02T00:53:52.630Z,64.09
2018-02-02T00:56:23.103Z,64.04
2018-02-02T00:58:53.629Z,64.21
2018-02-02T01:01:24.603Z,64.31
2018-02-02T01:03:56.122Z,64.30
2018-02-02T01:06:29.415Z,63.92
2018-02-02T01:09:02.727Z,64.07
2018-02-02T01:11:33.357Z,64.41
2018-02-02T01:14:04.114Z,64.56
2018-02-02T01:16:35.121Z,64.16
2018-02-02T01:19:05.471Z,63.89
2018-02-02T01:21:36.003Z,64.37
2018-02-02T01:24:06.294Z,64.59
2018-02-02T01:26:37.095Z,64.67
2018-02-02T01:29:07.917Z,65.24
2018-02-02T01:31:38.851Z,64.95
2018-02-02T01:34:09.531Z,64.90
2018-02-02T01:36:39.995Z,64.57
2018-02-02T01:39:10.196Z,64.30
2018-02-02T01:41:40.602Z,64.82
2018-02-02T01:44:10.859Z,64.31
2018-02-02T01:46:41.637Z,65.26
2018-02-02T01:49:12.282Z,65.00
2018-02-02T01:51:47.013Z,64.81
2018-02-02T01:54:17.340Z,64.71
2018-02-02T01:56:47.935Z,65.15
2018-02-02T01:59:18.622Z,65.07
2018-02-02T02:01:49.421Z,64.62
2018-02-02T02:04:20.222Z,64.67
2018-02-02T02:06:50.620Z,64.90
2018-02-02T02:09:21.164Z,64.92
2018-02-02T02:11:51.976Z,65.41
2018-02-02T02:14:22.213Z,65.85
2018-02-02T02:16:53.473Z,65.54
2018-02-02T02:19:24.113Z,65.52
2018-02-02T02:21:54.528Z,64.84
2018-02-02T02:24:25.312Z,65.63
2018-02-02T02:26:55.611Z,65.53
2018-02-02T02:29:25.854Z,65.25
2018-02-02T02:31:56.784Z,65.14
2018-02-02T02:34:28.184Z,65.62
2018-02-02T02:36:58.396Z,66.22
2018-02-02T02:39:29.274Z,66.75
2018-02-02T02:42:00.379Z,67.67
2018-02-02T02:44:31.511Z,68.52
2018-02-02T02:47:02.186Z,68.31
2018-02-02T02:49:32.603Z,68.40
2018-02-02T02:52:03.736Z,69.23
2018-02-02T02:54:34.056Z,70.12
2018-02-02T02:57:04.723Z,70.80
2018-02-02T02:59:35.372Z,71.32
2018-02-02T03:02:06.859Z,71.29
2018-02-02T03:04:37.840Z,72.04
2018-02-02T03:07:09.334Z,71.99
2018-02-02T03:09:40.658Z,71.68
2018-02-02T03:12:11.480Z,71.31
2018-02-02T03:14:42.913Z,71.15
2018-02-02T03:17:13.575Z,71.90
2018-02-02T03:19:43.712Z,72.75
2018-02-02T03:22:13.971Z,73.07
2018-02-02T03:24:44.285Z,73.20
2018-02-02T03:27:14.460Z,73.28
2018-02-02T03:29:45.043Z,73.25
2018-02-02T03:32:15.346Z,74.33
2018-02-02T03:34:45.669Z,74.22
2018-02-02T03:37:15.927Z,74.30
2018-02-02T03:39:46.317Z,74.32
2018-02-02T03:42:16.601Z,74.25
2018-02-02T03:44:47.396Z,74.44
2018-02-02T03:47:18.156Z,74.51
2018-02-02T03:49:48.431Z,75.19
2018-02-02T03:52:19.542Z,74.93
2018-02-02T03:54:49.825Z,75.12
2018-02-02T03:57:19.950Z,75.10
2018-02-02T03:59:50.501Z,75.31
2018-02-02T04:02:20.991Z,75.26
2018-02-02T04:04:51.353Z,75.41
2018-02-02T04:07:21.596Z,75.24
2018-02-02T04:09:51.868Z,75.58
2018-02-02T04:12:22.139Z,75.55
2018-02-02T04:14:52.654Z,75.08
2018-02-02T04:17:22.896Z,74.99
2018-02-02T04:19:53.483Z,74.79
2018-02-02T04:22:23.701Z,75.10
2018-02-02T04:24:54.014Z,74.87
2018-02-02T04:27:24.218Z,75.18
2018-02-02T04:29:54.784Z,75.14
2018-02-02T04:32:25.473Z,74.88
2018-02-02T04:34:55.825Z,74.81
2018-02-02T04:37:26.255Z,75.05
2018-02-02T04:39:56.698Z,74.31
2018-02-02T04:42:26.941Z,73.93
2018-02-02T04:44:57.426Z,73.65
2018-02-02T04:47:28.372Z,73.98
2018-02-02T04:49:59.091Z,74.35
2018-02-02T04:52:29.515Z,74.31
2018-02-02T04:54:59.692Z,74.31
2018-02-02T04:57:30.036Z,73.87
2018-02-02T05:00:00.256Z,73.72
2018-02-02T05:02:30.884Z,74.12
2018-02-02T05:05:01.509Z,74.48
2018-02-02T05:07:31.899Z,74.71
2018-02-02T05:10:05.254Z,74.69
2018-02-02T05:12:44.438Z,74.49
2018-02-02T05:15:18.116Z,74.65
2018-02-02T05:17:49.923Z,74.55
2018-02-02T05:20:20.791Z,73.89
2018-02-02T05:22:51.081Z,74.15
2018-02-02T05:25:21.275Z,73.87
2018-02-02T05:28:00.361Z,73.75
2018-02-02T05:30:32.372Z,73.63
2018-02-02T05:33:10.753Z,73.68
2018-02-02T05:35:46.710Z,74.05
2018-02-02T05:38:26.088Z,73.46
2018-02-02T05:41:01.987Z,73.60
2018-02-02T05:43:44.900Z,73.25
2018-02-02T05:46:16.997Z,73.24
2018-02-02T05:48:47.746Z,72.94
2018-02-02T05:51:18.002Z,73.23
2018-02-02T05:53:48.387Z,72.79
2018-02-02T05:56:19.136Z,72.94
2018-02-02T05:58:50.038Z,72.70
2018-02-02T06:01:20.978Z,72.84
2018-02-02T06:03:51.450Z,73.01
2018-02-02T06:06:21.907Z,72.63
2018-02-02T06:08:52.477Z,72.55
2018-02-02T06:11:24.773Z,72.10
2018-02-02T06:13:56.765Z,71.96
2018-02-02T06:16:29.232Z,71.93
2018-02-02T06:19:01.305Z,72.14
2018-02-02T06:21:33.955Z,72.49
2018-02-02T06:24:04.493Z,72.40
2018-02-02T06:26:35.866Z,73.01
2018-02-02T06:29:06.460Z,72.35
2018-02-02T06:31:37.919Z,72.41
2018-02-02T06:34:09.490Z,72.36
2018-02-02T06:36:41.041Z,71.89
2018-02-02T06:39:11.795Z,71.88
2018-02-02T06:41:42.317Z,71.51
2018-02-02T06:44:12.673Z,71.32
2018-02-02T06:46:43.495Z,71.37
2018-02-02T06:49:14.398Z,71.78
2018-02-02T06:51:45.684Z,71.43
2018-02-02T06:54:17.154Z,71.15
2018-02-02T06:56:48.152Z,70.92
2018-02-02T06:59:27.196Z,70.94
2018-02-02T07:04:56.425Z,72.23
2018-02-02T07:07:27.584Z,72.40
2018-02-02T07:09:58.305Z,71.88
2018-02-02T07:12:29.413Z,71.15
2018-02-02T07:15:04.122Z,70.76
2018-02-02T07:17:35.906Z,71.06
2018-02-02T07:20:08.280Z,71.18
2018-02-02T07:22:46.019Z,70.69
2018-02-02T07:25:17.534Z,70.36
2018-02-02T07:27:47.820Z,70.60
2018-02-02T07:30:19.349Z,70.84
2018-02-02T07:32:50.691Z,70.88
2018-02-02T07:35:22.018Z,70.64
2018-02-02T07:37:53.215Z,70.59
2018-02-02T07:40:23.654Z,70.57
2018-02-02T07:42:55.002Z,70.48
2018-02-02T07:45:27.797Z,70.48
2018-02-02T07:48:06.117Z,70.88
2018-02-02T07:50:42.772Z,70.81
2018-02-02T07:53:13.162Z,70.48
2018-02-02T07:55:44.579Z,70.97
2018-02-02T07:58:16.042Z,71.45
2018-02-02T08:00:51.093Z,71.31
2018-02-02T08:03:29.965Z,70.96
2018-02-02T08:06:00.931Z,71.03
2018-02-02T08:08:32.341Z,70.87
2018-02-02T08:11:02.693Z,70.84
2018-02-02T08:13:33.994Z,70.77
2018-02-02T08:16:05.427Z,70.87
2018-02-02T08:18:37.041Z,70.82
2018-02-02T08:21:08.575Z,70.97
2018-02-02T08:23:50.812Z,70.86
2018-02-02T08:26:28.377Z,70.68
2018-02-02T08:28:59.020Z,70.28
2018-02-02T08:31:29.994Z,70.12
2018-02-02T08:34:01.657Z,70.47
2018-02-02T08:36:32.031Z,70.19
2018-02-02T08:39:04.650Z,70.37
2018-02-02T08:41:36.120Z,70.82
2018-02-02T08:44:07.393Z,71.05
2018-02-02T08:46:44.391Z,71.22
2018-02-02T08:49:15.715Z,71.72
2018-02-02T08:51:49.271Z,72.37
2018-02-02T08:54:23.271Z,72.09
2018-02-02T08:56:53.893Z,72.06
2018-02-02T09:02:12.270Z,71.86
2018-02-02T09:04:43.565Z,72.33
2018-02-02T09:07:16.400Z,71.90
2018-02-02T09:09:50.312Z,73.60
2018-02-02T09:12:21.382Z,73.47
2018-02-02T09:14:52.534Z,73.57
2018-02-02T09:17:24.042Z,73.51
2018-02-02T09:19:55.495Z,73.39
2018-02-02T09:22:26.382Z,73.30
2018-02-02T09:24:56.834Z,73.32
2018-02-02T09:27:26.186Z,74.51
2018-02-02T09:29:57.671Z,74.53
2018-02-02T09:32:28.773Z,74.29
2018-02-02T09:34:59.130Z,73.97
2018-02-02T09:37:31.937Z,74.59
2018-02-02T09:40:04.069Z,74.35
2018-02-02T09:42:35.408Z,74.93
2018-02-02T09:45:14.967Z,75.27
2018-02-02T09:47:47.281Z,75.49
2018-02-02T09:50:20.993Z,75.13
2018-02-02T09:52:55.119Z,75.37
2018-02-02T09:55:28.658Z,75.43
2018-02-02T09:58:00.197Z,75.19
2018-02-02T10:00:32.400Z,74.96
2018-02-02T10:03:03.063Z,74.55
2018-02-02T10:05:34.464Z,74.35
2018-02-02T10:08:12.645Z,74.55
2018-02-02T10:10:45.692Z,74.80
2018-02-02T10:13:23.264Z,74.67
2018-02-02T10:15:59.119Z,74.55
2018-02-02T10:18:29.964Z,74.13
2018-02-02T10:21:02.195Z,74.12
2018-02-02T10:23:35.802Z,74.29
2018-02-02T10:26:14.286Z,74.81
2018-02-02T10:28:47.972Z,74.37
2018-02-02T10:31:20.229Z,74.78
2018-02-02T10:33:52.389Z,74.78
2018-02-02T10:36:26.523Z,74.58
2018-02-02T10:39:04.546Z,74.38
2018-02-02T10:41:42.178Z,74.88
2018-02-02T10:44:17.411Z,74.66
2018-02-02T10:46:50.866Z,74.54
2018-02-02T10:49:34.031Z,73.78
2018-02-02T10:52:07.706Z,73.53
2018-02-02T10:54:40.527Z,74.03
2018-02-02T10:57:12.264Z,73.79
2018-02-02T10:59:43.798Z,74.73
2018-02-02T11:02:20.215Z,75.43
2018-02-02T11:04:55.573Z,75.12
2018-02-02T11:07:28.920Z,75.51
2018-02-02T11:10:04.411Z,75.52
2018-02-02T11:12:36.950Z,75.23
2018-02-02T11:15:12.849Z,74.71
2018-02-02T11:17:43.992Z,74.38
2018-02-02T11:20:14.953Z,74.24
2018-02-02T11:22:47.225Z,73.68
2018-02-02T11:25:18.393Z,72.82
2018-02-02T11:27:49.022Z,72.71
2018-02-02T11:30:19.930Z,72.84
2018-02-02T11:32:52.823Z,72.96
2018-02-02T11:35:27.018Z,72.79
2018-02-02T11:38:03.498Z,72.86
2018-02-02T11:40:33.815Z,73.07
2018-02-02T11:43:04.773Z,73.92
2018-02-02T11:45:35.646Z,74.05
2018-02-02T11:48:06.641Z,73.62
2018-02-02T11:50:37.877Z,73.14
2018-02-02T11:53:08.417Z,73.10
2018-02-02T11:55:40.297Z,72.75
2018-02-02T11:58:21.738Z,72.52
2018-02-02T12:00:52.612Z,72.26
2018-02-02T12:03:25.632Z,72.29
2018-02-02T12:05:57.316Z,71.51
2018-02-02T12:08:28.416Z,70.58
2018-02-02T12:11:00.301Z,71.62
2018-02-02T12:13:30.792Z,70.62
2018-02-02T12:16:04.613Z,71.08
2018-02-02T12:18:36.783Z,70.51
2018-02-02T12:21:08.290Z,70.80
2018-02-02T12:23:39.810Z,70.05
2018-02-02T12:26:10.611Z,69.87
2018-02-02T12:29:01.498Z,68.98
2018-02-02T12:31:33.964Z,69.53
2018-02-02T12:34:05.214Z,69.50
2018-02-02T12:36:35.773Z,69.66
2018-02-02T12:39:06.650Z,70.16
2018-02-02T12:41:52.704Z,69.92
2018-02-02T12:44:28.337Z,69.00
2018-02-02T12:47:05.875Z,68.75
2018-02-02T12:49:37.135Z,68.09
2018-02-02T12:52:08.390Z,68.93
2018-02-02T12:54:43.175Z,68.70
2018-02-02T12:57:15.688Z,69.10
2018-02-02T12:59:46.846Z,68.11
2018-02-02T13:02:22.381Z,67.45
2018-02-02T13:04:53.399Z,67.31
2018-02-02T13:07:24.668Z,66.41
2018-02-02T13:09:55.109Z,67.03
2018-02-02T13:12:25.850Z,67.18
2018-02-02T13:14:56.603Z,67.06
2018-02-02T13:17:32.100Z,66.90
2018-02-02T13:20:24.125Z,67.25
2018-02-02T13:23:02.857Z,67.07
2018-02-02T13:25:33.982Z,67.60
2018-02-02T13:28:05.442Z,67.28
2018-02-02T13:30:52.608Z,67.14
2018-02-02T13:33:23.598Z,66.99
2018-02-02T13:35:57.251Z,66.96
2018-02-02T13:38:34.721Z,66.14
2018-02-02T13:41:09.070Z,65.87
2018-02-02T13:43:51.060Z,66.06
2018-02-02T13:46:25.053Z,65.24
2018-02-02T13:48:57.944Z,65.54
2018-02-02T13:51:29.610Z,65.32
2018-02-02T13:54:01.799Z,65.30
2018-02-02T13:56:34.055Z,64.62
2018-02-02T13:59:13.282Z,64.67
2018-02-02T14:01:45.526Z,63.83
2018-02-02T14:04:16.321Z,64.31
2018-02-02T14:06:48.209Z,64.62
2018-02-02T14:09:32.097Z,64.63
2018-02-02T14:12:03.611Z,65.38
2018-02-02T14:14:39.953Z,65.25
2018-02-02T14:17:11.053Z,65.10
2018-02-02T14:19:41.432Z,64.90
2018-02-02T14:22:13.969Z,64.24
2018-02-02T14:24:45.601Z,64.80
2018-02-02T14:27:18.816Z,64.35
2018-02-02T14:29:51.340Z,64.51
2018-02-02T14:32:22.793Z,64.67
2018-02-02T14:34:54.888Z,64.93
2018-02-02T14:37:25.472Z,65.76
2018-02-02T14:39:57.120Z,66.29
2018-02-02T14:42:29.920Z,66.71
2018-02-02T14:45:01.074Z,66.70
2018-02-02T14:47:34.759Z,66.52
2018-02-02T14:50:09.585Z,65.91
2018-02-02T14:52:42.027Z,65.97
2018-02-02T14:55:13.354Z,65.69
2018-02-02T14:57:44.979Z,65.45
2018-02-02T15:00:22.884Z,65.62
2018-02-02T15:02:54.115Z,65.54
2018-02-02T15:05:25.018Z,66.59
2018-02-02T15:08:07.773Z,67.16
2018-02-02T15:10:40.561Z,67.73
2018-02-02T15:13:12.040Z,67.43
2018-02-02T15:15:45.244Z,67.42
2018-02-02T15:18:25.644Z,67.15
2018-02-02T15:21:02.170Z,67.39
2018-02-02T15:23:33.426Z,67.90
2018-02-02T15:26:06.546Z,68.12
2018-02-02T15:28:40.504Z,68.62
2018-02-02T15:31:12.161Z,69.05
2018-02-02T15:33:42.700Z,69.68
2018-02-02T15:36:17.534Z,69.86
2018-02-02T15:38:50.588Z,69.51
2018-02-02T15:41:24.690Z,69.68
2018-02-02T15:43:56.632Z,69.36
2018-02-02T15:46:30.514Z,69.81
2018-02-02T15:49:02.357Z,69.09
2018-02-02T15:51:35.875Z,69.28
2018-02-02T15:56:58.564Z,69.48
2018-02-02T15:59:31.827Z,70.00
2018-02-02T16:02:06.039Z,70.01
2018-02-02T16:04:44.098Z,69.97
2018-02-02T16:07:15.566Z,70.33
2018-02-02T16:09:49.394Z,70.59
2018-02-02T16:12:19.917Z,71.12
2018-02-02T16:14:51.533Z,70.69
2018-02-02T16:17:22.216Z,70.95
2018-02-02T16:19:53.728Z,71.07
2018-02-02T16:22:27.899Z,70.90
2018-02-02T16:24:59.116Z,71.03
2018-02-02T16:27:30.060Z,71.17
2018-02-02T16:30:06.203Z,71.70
2018-02-02T16:32:37.616Z,71.19
2018-02-02T16:35:09.642Z,70.80
2018-02-02T16:37:41.201Z,71.45
2018-02-02T16:40:12.799Z,71.79
2018-02-02T16:42:43.484Z,71.71
2018-02-02T16:45:16.576Z,71.52
2018-02-02T16:47:47.097Z,71.21
2018-02-02T16:50:18.230Z,70.78
2018-02-02T16:52:49.609Z,70.61
2018-02-02T16:55:20.120Z,70.37
2018-02-02T16:57:52.206Z,70.39
2018-02-02T17:00:23.696Z,70.57
2018-02-02T17:02:54.755Z,70.00
2018-02-02T17:05:25.738Z,69.90
2018-02-02T17:07:57.244Z,70.35
2018-02-02T17:10:36.935Z,70.82
2018-02-02T17:13:07.504Z,70.88
2018-02-02T17:15:40.052Z,70.82
2018-02-02T17:18:14.089Z,70.88
2018-02-02T17:20:45.587Z,71.45
2018-02-02T17:23:16.777Z,71.45
2018-02-02T17:25:49.373Z,71.63
2018-02-02T17:28:21.083Z,72.15
2018-02-02T17:30:53.443Z,72.13
2018-02-02T17:33:24.248Z,72.06
2018-02-02T17:35:55.027Z,72.48
2018-02-02T17:38:25.851Z,72.50
2018-02-02T17:40:58.221Z,72.68
2018-02-02T17:43:29.844Z,72.84
2018-02-02T17:46:02.289Z,72.81
2018-02-02T17:48:37.587Z,72.72
2018-02-02T17:51:17.056Z,72.18
2018-02-02T17:53:50.565Z,72.00
2018-02-02T17:56:26.294Z,72.02
2018-02-02T17:58:58.128Z,71.42
2018-02-02T18:04:08.058Z,71.68
2018-02-02T18:06:43.479Z,71.96
2018-02-02T18:09:15.659Z,72.28
2018-02-02T18:11:47.623Z,72.00
2018-02-02T18:14:22.902Z,71.80
2018-02-02T18:16:56.937Z,71.65
2018-02-02T18:19:29.083Z,71.65
2018-02-02T18:22:01.305Z,71.95
2018-02-02T18:24:34.810Z,71.87
2018-02-02T18:27:06.747Z,71.77
2018-02-02T18:32:48.674Z,72.25
2018-02-02T18:35:23.908Z,72.67
2018-02-02T18:37:59.796Z,72.77
2018-02-02T18:40:33.806Z,73.02
2018-02-02T18:43:05.839Z,73.28
2018-02-02T18:45:41.112Z,73.18
2018-02-02T18:48:16.268Z,73.00
2018-02-02T18:50:53.609Z,72.93
2018-02-02T18:53:29.389Z,72.85
2018-02-02T18:56:11.617Z,73.36
2018-02-02T18:58:47.801Z,73.29
2018-02-02T19:01:28.032Z,73.41
2018-02-02T19:09:28.754Z,73.40
2018-02-02T19:12:02.202Z,73.41
2018-02-02T19:14:35.269Z,73.00
2018-02-02T19:17:07.199Z,72.95
2018-02-02T19:19:42.380Z,72.87
2018-02-02T19:22:13.917Z,72.70
2018-02-02T19:24:47.730Z,72.84
2018-02-02T19:27:22.620Z,73.04
2018-02-02T19:29:59.317Z,72.56
2018-02-02T19:32:33.664Z,72.34
2018-02-02T19:35:07.071Z,72.28
2018-02-02T19:37:41.901Z,72.58
2018-02-02T19:40:19.687Z,72.83
2018-02-02T19:45:39.818Z,73.14
2018-02-02T19:48:14.669Z,73.00
2018-02-02T19:50:48.988Z,73.16
2018-02-02T19:53:23.202Z,73.44
2018-02-02T19:55:59.356Z,73.02
2018-02-02T19:58:41.544Z,73.14
2018-02-02T20:01:15.271Z,72.52
2018-02-02T20:03:48.669Z,72.38
2018-02-02T20:06:21.118Z,72.38
2018-02-02T20:08:54.170Z,72.09
2018-02-02T20:11:27.846Z,71.84
2018-02-02T20:14:14.248Z,71.66
2018-02-02T20:19:46.182Z,72.06
2018-02-02T20:22:21.985Z,71.99
2018-02-02T20:24:56.436Z,71.97
2018-02-02T20:27:38.558Z,71.67
2018-02-02T20:30:16.782Z,71.72
2018-02-02T20:32:50.638Z,71.76
2018-02-02T20:35:34.222Z,71.52
2018-02-02T20:38:06.233Z,71.78
2018-02-02T20:40:38.893Z,71.94
2018-02-02T20:43:14.358Z,71.68
2018-02-02T20:45:47.433Z,71.68
2018-02-02T20:48:21.435Z,71.78
2018-02-02T20:50:56.582Z,71.55
2018-02-02T20:53:36.666Z,71.39
2018-02-02T20:56:11.385Z,71.29
2018-02-02T20:58:44.289Z,71.22
2018-02-02T21:01:17.809Z,71.23
2018-02-02T21:03:49.574Z,70.98
2018-02-02T21:06:27.529Z,70.74
2018-02-02T21:22:39.610Z,70.22
2018-02-02T21:25:10.989Z,69.51
2018-02-02T21:27:45.294Z,69.86
2018-02-02T21:30:19.950Z,69.12
2018-02-02T21:32:52.539Z,69.50
2018-02-02T21:35:25.077Z,69.37
2018-02-02T21:38:01.509Z,69.50
2018-02-02T21:40:54.194Z,69.62
2018-02-02T21:43:35.957Z,69.52
2018-02-02T21:46:08.339Z,69.41
2018-02-02T21:51:24.655Z,69.46
2018-02-02T21:53:57.173Z,69.75
2018-02-02T21:56:30.843Z,69.83
2018-02-02T21:59:03.279Z,70.60
2018-02-02T22:01:37.459Z,70.90
2018-02-02T22:04:08.358Z,70.86
2018-02-02T22:06:42.778Z,71.12
2018-02-02T22:09:13.493Z,70.82
2018-02-02T22:11:44.212Z,70.63
2018-02-02T22:14:15.959Z,70.44
2018-02-02T22:16:48.020Z,70.41
2018-02-02T22:19:21.232Z,70.05
2018-02-02T22:21:53.443Z,69.92
2018-02-02T22:24:24.892Z,69.72
2018-02-02T22:26:56.557Z,69.62
2018-02-02T22:29:27.285Z,69.72
2018-02-02T22:31:58.090Z,69.53
2018-02-02T22:34:29.871Z,69.58
2018-02-02T22:37:04.798Z,69.51
2018-02-02T22:57:41.522Z,69.00
2018-02-02T23:00:18.706Z,68.65
2018-02-02T23:02:49.683Z,68.74
2018-02-02T23:05:21.264Z,68.57
2018-02-02T23:07:52.453Z,68.62
2018-02-02T23:10:23.233Z,68.48
2018-02-02T23:12:53.518Z,68.86
2018-02-02T23:26:33.558Z,68.32
2018-02-02T23:29:05.910Z,68.09
2018-02-02T23:31:36.518Z,68.20
2018-02-02T23:34:07.855Z,68.22
2018-02-02T23:36:39.898Z,68.13
2018-02-02T23:39:11.202Z,68.56
2018-02-02T23:41:41.644Z,68.52
2018-02-02T23:52:38.328Z,68.38
2018-02-02T23:55:08.781Z,68.19
2018-02-02T23:57:39.180Z,67.92
